sensor_id;sensor_type;location;lat;lon;timestamp;P1;P2;P0
72031;PMS5003;49185;42.320;23.198;2023-03-07T00:00:00;23.33;22.00;9.67
72031;PMS5003;49185;42.320;23.198;2023-03-07T00:02:25;27.00;25.33;14.33
72031;PMS5003;49185;42.320;23.198;2023-03-07T00:04:51;27.00;25.00;16.33
72031;PMS5003;49185;42.320;23.198;2023-03-07T00:07:16;25.00;24.00;15.33
72031;PMS5003;49185;42.320;23.198;2023-03-07T00:09:42;26.00;26.00;16.00
72031;PMS5003;49185;42.320;23.198;2023-03-07T00:12:07;26.00;24.00;16.00
72031;PMS5003;49185;42.320;23.198;2023-03-07T00:14:34;23.50;22.50;13.00
72031;PMS5003;49185;42.320;23.198;2023-03-07T00:16:59;24.00;23.00;11.00
72031;PMS5003;49185;42.320;23.198;2023-03-07T00:19:25;26.00;24.33;13.00
72031;PMS5003;49185;42.320;23.198;2023-03-07T00:21:50;24.00;23.33;13.00
72031;PMS5003;49185;42.320;23.198;2023-03-07T00:24:15;27.33;26.00;15.67
72031;PMS5003;49185;42.320;23.198;2023-03-07T00:26:41;33.67;28.00;17.00
72031;PMS5003;49185;42.320;23.198;2023-03-07T00:29:06;36.67;30.67;18.00
72031;PMS5003;49185;42.320;23.198;2023-03-07T00:31:33;32.75;28.00;16.00
72031;PMS5003;49185;42.320;23.198;2023-03-07T00:33:59;26.75;24.00;14.00
72031;PMS5003;49185;42.320;23.198;2023-03-07T00:36:24;22.67;20.00;12.00
72031;PMS5003;49185;42.320;23.198;2023-03-07T00:38:50;22.33;19.00;10.00
72031;PMS5003;49185;42.320;23.198;2023-03-07T00:41:18;20.75;18.00;7.50
72031;PMS5003;49185;42.320;23.198;2023-03-07T00:43:47;22.50;20.00;8.00
72031;PMS5003;49185;42.320;23.198;2023-03-07T00:46:14;21.00;20.00;10.00
72031;PMS5003;49185;42.320;23.198;2023-03-07T00:48:40;18.25;18.00;7.00
72031;PMS5003;49185;42.320;23.198;2023-03-07T00:51:07;18.00;16.00;7.00
72031;PMS5003;49185;42.320;23.198;2023-03-07T00:53:34;17.50;16.50;5.00
72031;PMS5003;49185;42.320;23.198;2023-03-07T00:58:31;13.25;13.25;5.00
72031;PMS5003;49185;42.320;23.198;2023-03-07T01:00:58;15.00;15.00;4.00
72031;PMS5003;49185;42.320;23.198;2023-03-07T01:03:24;14.00;13.00;4.00
72031;PMS5003;49185;42.320;23.198;2023-03-07T01:05:50;11.00;10.50;5.00
72031;PMS5003;49185;42.320;23.198;2023-03-07T01:08:16;11.50;11.00;4.00
72031;PMS5003;49185;42.320;23.198;2023-03-07T01:10:43;16.50;12.25;5.50
72031;PMS5003;49185;42.320;23.198;2023-03-07T01:13:09;16.50;15.25;5.50
72031;PMS5003;49185;42.320;23.198;2023-03-07T01:15:36;16.00;15.00;5.25
72031;PMS5003;49185;42.320;23.198;2023-03-07T01:18:03;16.25;15.00;5.00
72031;PMS5003;49185;42.320;23.198;2023-03-07T01:20:30;14.25;13.50;5.50
72031;PMS5003;49185;42.320;23.198;2023-03-07T01:22:57;15.00;15.00;6.00
72031;PMS5003;49185;42.320;23.198;2023-03-07T01:25:22;14.00;14.00;5.00
72031;PMS5003;49185;42.320;23.198;2023-03-07T01:27:50;15.00;13.00;5.00
72031;PMS5003;49185;42.320;23.198;2023-03-07T01:30:16;12.00;10.75;5.00
72031;PMS5003;49185;42.320;23.198;2023-03-07T01:32:41;16.00;13.00;5.00
72031;PMS5003;49185;42.320;23.198;2023-03-07T01:35:07;15.67;13.00;4.00
72031;PMS5003;49185;42.320;23.198;2023-03-07T01:37:32;15.00;11.00;4.00
72031;PMS5003;49185;42.320;23.198;2023-03-07T01:39:58;15.00;12.00;5.00
72031;PMS5003;49185;42.320;23.198;2023-03-07T01:42:23;15.33;14.00;5.00
72031;PMS5003;49185;42.320;23.198;2023-03-07T01:44:59;15.00;11.00;4.33
72031;PMS5003;49185;42.320;23.198;2023-03-07T01:47:37;14.00;13.00;5.00
72031;PMS5003;49185;42.320;23.198;2023-03-07T01:50:05;14.50;13.00;5.00
72031;PMS5003;49185;42.320;23.198;2023-03-07T01:52:33;11.00;10.25;5.00
72031;PMS5003;49185;42.320;23.198;2023-03-07T01:55:04;14.50;13.50;5.00
72031;PMS5003;49185;42.320;23.198;2023-03-07T01:57:36;16.00;15.00;5.00
72031;PMS5003;49185;42.320;23.198;2023-03-07T02:00:07;15.75;15.00;5.00
72031;PMS5003;49185;42.320;23.198;2023-03-07T02:02:36;14.75;12.00;5.25
72031;PMS5003;49185;42.320;23.198;2023-03-07T02:05:10;13.00;11.00;5.00
72031;PMS5003;49185;42.320;23.198;2023-03-07T02:07:41;14.75;11.00;4.25
72031;PMS5003;49185;42.320;23.198;2023-03-07T02:10:12;15.50;10.50;4.00
72031;PMS5003;49185;42.320;23.198;2023-03-07T02:12:39;14.50;11.00;4.25
72031;PMS5003;49185;42.320;23.198;2023-03-07T02:15:07;15.00;12.00;5.00
72031;PMS5003;49185;42.320;23.198;2023-03-07T02:17:33;16.00;10.50;5.00
72031;PMS5003;49185;42.320;23.198;2023-03-07T02:20:02;15.00;10.00;4.00
72031;PMS5003;49185;42.320;23.198;2023-03-07T02:22:46;13.25;8.25;3.00
72031;PMS5003;49185;42.320;23.198;2023-03-07T02:27:48;13.00;10.50;4.00
72031;PMS5003;49185;42.320;23.198;2023-03-07T02:30:17;15.25;12.75;4.75
72031;PMS5003;49185;42.320;23.198;2023-03-07T02:32:43;15.00;14.00;5.00
72031;PMS5003;49185;42.320;23.198;2023-03-07T02:35:11;15.33;14.00;5.00
72031;PMS5003;49185;42.320;23.198;2023-03-07T02:37:38;13.00;11.00;4.00
72031;PMS5003;49185;42.320;23.198;2023-03-07T02:40:08;11.75;10.50;5.00
72031;PMS5003;49185;42.320;23.198;2023-03-07T02:42:36;16.50;12.00;5.50
72031;PMS5003;49185;42.320;23.198;2023-03-07T02:45:06;19.50;15.25;6.25
72031;PMS5003;49185;42.320;23.198;2023-03-07T02:47:34;17.75;16.00;6.50
72031;PMS5003;49185;42.320;23.198;2023-03-07T02:50:00;17.25;16.00;5.00
72031;PMS5003;49185;42.320;23.198;2023-03-07T02:52:25;17.00;13.00;5.00
72031;PMS5003;49185;42.320;23.198;2023-03-07T02:54:51;15.33;13.33;4.33
72031;PMS5003;49185;42.320;23.198;2023-03-07T02:57:16;16.00;14.00;5.00
72031;PMS5003;49185;42.320;23.198;2023-03-07T02:59:41;13.00;12.00;5.00
72031;PMS5003;49185;42.320;23.198;2023-03-07T03:02:07;14.00;13.00;6.00
72031;PMS5003;49185;42.320;23.198;2023-03-07T03:04:32;15.33;11.33;6.00
72031;PMS5003;49185;42.320;23.198;2023-03-07T03:06:57;17.33;16.33;6.00
72031;PMS5003;49185;42.320;23.198;2023-03-07T03:09:23;19.33;17.00;7.00
72031;PMS5003;49185;42.320;23.198;2023-03-07T03:11:49;17.33;15.33;5.33
72031;PMS5003;49185;42.320;23.198;2023-03-07T03:14:14;18.00;17.00;8.00
72031;PMS5003;49185;42.320;23.198;2023-03-07T03:16:39;17.00;16.00;5.00
72031;PMS5003;49185;42.320;23.198;2023-03-07T03:19:05;16.00;16.00;5.00
72031;PMS5003;49185;42.320;23.198;2023-03-07T03:21:31;17.50;16.75;5.75
72031;PMS5003;49185;42.320;23.198;2023-03-07T03:23:56;18.00;17.00;6.00
72031;PMS5003;49185;42.320;23.198;2023-03-07T03:26:22;20.00;18.00;7.33
72031;PMS5003;49185;42.320;23.198;2023-03-07T03:28:47;20.00;19.00;8.00
72031;PMS5003;49185;42.320;23.198;2023-03-07T03:31:13;19.00;18.00;8.00
72031;PMS5003;49185;42.320;23.198;2023-03-07T03:33:38;21.00;19.00;8.00
72031;PMS5003;49185;42.320;23.198;2023-03-07T03:36:05;18.67;17.67;8.00
72031;PMS5003;49185;42.320;23.198;2023-03-07T03:38:35;22.00;19.00;7.00
72031;PMS5003;49185;42.320;23.198;2023-03-07T03:41:04;22.50;21.75;10.00
72031;PMS5003;49185;42.320;23.198;2023-03-07T03:43:31;25.25;23.50;12.25
72031;PMS5003;49185;42.320;23.198;2023-03-07T03:45:58;26.25;24.00;12.00
72031;PMS5003;49185;42.320;23.198;2023-03-07T03:48:23;19.00;16.33;6.00
72031;PMS5003;49185;42.320;23.198;2023-03-07T03:50:49;18.00;16.00;5.00
72031;PMS5003;49185;42.320;23.198;2023-03-07T03:53:15;18.33;16.33;5.33
72031;PMS5003;49185;42.320;23.198;2023-03-07T03:55:40;17.33;16.00;5.00
72031;PMS5003;49185;42.320;23.198;2023-03-07T03:58:06;14.50;11.50;4.00
72031;PMS5003;49185;42.320;23.198;2023-03-07T04:00:32;15.33;12.67;5.00
72031;PMS5003;49185;42.320;23.198;2023-03-07T04:02:57;18.00;14.00;5.00
72031;PMS5003;49185;42.320;23.198;2023-03-07T04:05:23;17.67;15.33;5.00
72031;PMS5003;49185;42.320;23.198;2023-03-07T04:07:48;17.00;15.00;5.00
72031;PMS5003;49185;42.320;23.198;2023-03-07T04:10:14;16.00;15.00;5.00
72031;PMS5003;49185;42.320;23.198;2023-03-07T04:12:39;15.33;13.33;5.00
72031;PMS5003;49185;42.320;23.198;2023-03-07T04:15:05;14.33;13.00;5.00
72031;PMS5003;49185;42.320;23.198;2023-03-07T04:17:32;14.50;13.25;4.50
72031;PMS5003;49185;42.320;23.198;2023-03-07T04:19:57;13.00;11.00;5.00
72031;PMS5003;49185;42.320;23.198;2023-03-07T04:22:23;13.33;10.00;4.00
72031;PMS5003;49185;42.320;23.198;2023-03-07T04:24:48;14.00;10.33;4.00
72031;PMS5003;49185;42.320;23.198;2023-03-07T04:27:13;15.33;13.00;4.67
72031;PMS5003;49185;42.320;23.198;2023-03-07T04:29:39;16.00;14.00;4.00
72031;PMS5003;49185;42.320;23.198;2023-03-07T04:32:04;15.00;13.00;5.00
72031;PMS5003;49185;42.320;23.198;2023-03-07T04:34:30;14.67;13.67;5.00
72031;PMS5003;49185;42.320;23.198;2023-03-07T04:36:55;15.00;14.00;4.00
72031;PMS5003;49185;42.320;23.198;2023-03-07T04:39:21;13.00;11.00;4.67
72031;PMS5003;49185;42.320;23.198;2023-03-07T04:41:46;14.00;11.00;5.00
72031;PMS5003;49185;42.320;23.198;2023-03-07T04:44:11;15.00;11.00;4.00
72031;PMS5003;49185;42.320;23.198;2023-03-07T04:46:37;15.00;11.33;3.33
72031;PMS5003;49185;42.320;23.198;2023-03-07T04:49:02;15.00;11.33;5.33
72031;PMS5003;49185;42.320;23.198;2023-03-07T04:51:28;17.33;14.33;7.67
72031;PMS5003;49185;42.320;23.198;2023-03-07T04:53:53;22.33;20.00;9.00
72031;PMS5003;49185;42.320;23.198;2023-03-07T04:56:18;24.00;21.33;11.33
72031;PMS5003;49185;42.320;23.198;2023-03-07T04:58:44;37.67;30.33;17.00
72031;PMS5003;49185;42.320;23.198;2023-03-07T05:01:10;44.50;34.00;20.00
72031;PMS5003;49185;42.320;23.198;2023-03-07T05:03:35;41.00;33.00;19.00
72031;PMS5003;49185;42.320;23.198;2023-03-07T05:06:04;38.00;31.00;19.00
72031;PMS5003;49185;42.320;23.198;2023-03-07T05:08:32;40.75;33.00;20.50
72031;PMS5003;49185;42.320;23.198;2023-03-07T05:10:58;41.50;32.00;22.00
72031;PMS5003;49185;42.320;23.198;2023-03-07T05:13:23;43.67;35.33;22.67
72031;PMS5003;49185;42.320;23.198;2023-03-07T05:15:50;41.00;34.00;20.67
72031;PMS5003;49185;42.320;23.198;2023-03-07T05:18:16;33.00;28.75;18.00
72031;PMS5003;49185;42.320;23.198;2023-03-07T05:20:42;33.67;28.00;17.00
72031;PMS5003;49185;42.320;23.198;2023-03-07T05:23:07;28.00;24.33;14.00
72031;PMS5003;49185;42.320;23.198;2023-03-07T05:25:33;25.00;23.33;14.00
72031;PMS5003;49185;42.320;23.198;2023-03-07T05:27:58;24.00;22.33;12.00
72031;PMS5003;49185;42.320;23.198;2023-03-07T05:30:24;26.33;23.33;12.00
72031;PMS5003;49185;42.320;23.198;2023-03-07T05:32:49;28.67;24.67;15.00
72031;PMS5003;49185;42.320;23.198;2023-03-07T05:35:15;26.00;23.67;14.33
72031;PMS5003;49185;42.320;23.198;2023-03-07T05:37:40;26.00;25.33;15.00
72031;PMS5003;49185;42.320;23.198;2023-03-07T05:40:05;25.33;25.33;15.00
72031;PMS5003;49185;42.320;23.198;2023-03-07T05:42:31;26.75;25.50;15.00
72031;PMS5003;49185;42.320;23.198;2023-03-07T05:44:56;27.33;26.00;15.33
72031;PMS5003;49185;42.320;23.198;2023-03-07T05:47:22;27.33;26.00;16.00
72031;PMS5003;49185;42.320;23.198;2023-03-07T05:49:47;31.67;27.00;17.00
72031;PMS5003;49185;42.320;23.198;2023-03-07T05:52:13;34.33;28.33;16.67
72031;PMS5003;49185;42.320;23.198;2023-03-07T05:54:38;34.33;30.00;18.00
72031;PMS5003;49185;42.320;23.198;2023-03-07T05:57:04;39.67;32.00;19.67
72031;PMS5003;49185;42.320;23.198;2023-03-07T05:59:29;42.00;34.00;21.00
72031;PMS5003;49185;42.320;23.198;2023-03-07T06:01:54;41.33;34.33;22.00
72031;PMS5003;49185;42.320;23.198;2023-03-07T06:04:20;38.33;32.00;20.00
72031;PMS5003;49185;42.320;23.198;2023-03-07T06:06:45;37.00;31.00;20.00
72031;PMS5003;49185;42.320;23.198;2023-03-07T06:09:11;37.00;29.33;19.00
72031;PMS5003;49185;42.320;23.198;2023-03-07T06:11:36;31.00;27.00;17.00
72031;PMS5003;49185;42.320;23.198;2023-03-07T06:14:01;29.00;25.00;17.00
72031;PMS5003;49185;42.320;23.198;2023-03-07T06:16:27;30.67;27.33;18.00
72031;PMS5003;49185;42.320;23.198;2023-03-07T06:18:52;28.33;27.33;18.00
72031;PMS5003;49185;42.320;23.198;2023-03-07T06:21:18;29.33;27.33;16.00
72031;PMS5003;49185;42.320;23.198;2023-03-07T06:23:43;29.00;27.00;15.33
72031;PMS5003;49185;42.320;23.198;2023-03-07T06:26:09;24.00;24.00;14.25
72031;PMS5003;49185;42.320;23.198;2023-03-07T06:28:35;30.25;27.00;16.50
72031;PMS5003;49185;42.320;23.198;2023-03-07T06:31:05;34.00;29.00;19.00
72031;PMS5003;49185;42.320;23.198;2023-03-07T06:33:35;28.00;25.00;16.00
72031;PMS5003;49185;42.320;23.198;2023-03-07T06:36:05;23.50;21.00;13.00
72031;PMS5003;49185;42.320;23.198;2023-03-07T06:38:32;22.00;19.00;9.00
72031;PMS5003;49185;42.320;23.198;2023-03-07T06:40:58;23.00;20.25;11.00
72031;PMS5003;49185;42.320;23.198;2023-03-07T06:43:24;23.00;22.00;9.33
72031;PMS5003;49185;42.320;23.198;2023-03-07T06:45:50;21.00;20.00;8.00
72031;PMS5003;49185;42.320;23.198;2023-03-07T06:48:15;20.33;20.00;9.67
72031;PMS5003;49185;42.320;23.198;2023-03-07T06:50:40;20.00;19.00;8.00
72031;PMS5003;49185;42.320;23.198;2023-03-07T06:53:06;19.00;18.00;7.00
72031;PMS5003;49185;42.320;23.198;2023-03-07T06:55:31;20.33;17.67;7.67
72031;PMS5003;49185;42.320;23.198;2023-03-07T06:57:57;19.00;16.00;7.00
72031;PMS5003;49185;42.320;23.198;2023-03-07T07:00:22;15.67;14.00;5.00
72031;PMS5003;49185;42.320;23.198;2023-03-07T07:02:48;17.67;15.00;7.67
72031;PMS5003;49185;42.320;23.198;2023-03-07T07:05:13;17.00;15.00;6.00
72031;PMS5003;49185;42.320;23.198;2023-03-07T07:07:39;19.00;17.00;7.00
72031;PMS5003;49185;42.320;23.198;2023-03-07T07:10:04;19.00;17.00;7.00
72031;PMS5003;49185;42.320;23.198;2023-03-07T07:12:30;19.00;17.33;7.00
72031;PMS5003;49185;42.320;23.198;2023-03-07T07:14:55;16.00;15.33;5.00
72031;PMS5003;49185;42.320;23.198;2023-03-07T07:17:20;15.00;14.00;6.00
72031;PMS5003;49185;42.320;23.198;2023-03-07T07:19:46;14.00;12.00;5.00
72031;PMS5003;49185;42.320;23.198;2023-03-07T07:22:11;12.00;9.67;5.00
72031;PMS5003;49185;42.320;23.198;2023-03-07T07:24:40;11.50;10.25;5.00
72031;PMS5003;49185;42.320;23.198;2023-03-07T07:27:05;14.33;13.33;5.67
72031;PMS5003;49185;42.320;23.198;2023-03-07T07:29:31;17.00;15.00;5.00
72031;PMS5003;49185;42.320;23.198;2023-03-07T07:31:56;16.00;10.50;3.50
72031;PMS5003;49185;42.320;23.198;2023-03-07T07:34:22;15.00;10.33;4.00
72031;PMS5003;49185;42.320;23.198;2023-03-07T07:36:47;16.33;13.67;5.33
72031;PMS5003;49185;42.320;23.198;2023-03-07T07:39:13;17.00;15.00;7.00
72031;PMS5003;49185;42.320;23.198;2023-03-07T07:41:38;12.00;11.00;3.00
72031;PMS5003;49185;42.320;23.198;2023-03-07T07:44:04;14.67;13.00;6.00
72031;PMS5003;49185;42.320;23.198;2023-03-07T07:46:29;15.00;13.67;6.00
72031;PMS5003;49185;42.320;23.198;2023-03-07T07:48:54;15.33;14.00;5.00
72031;PMS5003;49185;42.320;23.198;2023-03-07T07:51:20;15.00;11.00;4.00
72031;PMS5003;49185;42.320;23.198;2023-03-07T07:53:46;9.00;8.00;4.00
72031;PMS5003;49185;42.320;23.198;2023-03-07T07:56:11;9.67;8.00;3.67
72031;PMS5003;49185;42.320;23.198;2023-03-07T07:58:37;10.33;8.67;2.00
72031;PMS5003;49185;42.320;23.198;2023-03-07T08:01:15;7.50;7.00;3.00
72031;PMS5003;49185;42.320;23.198;2023-03-07T08:03:43;7.50;7.00;2.00
72031;PMS5003;49185;42.320;23.198;2023-03-07T08:06:09;7.00;7.00;2.00
72031;PMS5003;49185;42.320;23.198;2023-03-07T08:08:34;8.00;8.00;2.25
72031;PMS5003;49185;42.320;23.198;2023-03-07T08:11:00;9.50;7.50;3.25
72031;PMS5003;49185;42.320;23.198;2023-03-07T08:13:26;5.00;4.00;2.00
72031;PMS5003;49185;42.320;23.198;2023-03-07T08:15:52;5.00;5.00;3.00
72031;PMS5003;49185;42.320;23.198;2023-03-07T08:18:17;6.00;6.00;3.00
72031;PMS5003;49185;42.320;23.198;2023-03-07T08:20:43;4.00;4.00;2.00
72031;PMS5003;49185;42.320;23.198;2023-03-07T08:23:08;4.67;4.67;1.00
72031;PMS5003;49185;42.320;23.198;2023-03-07T08:25:34;5.00;5.00;1.00
72031;PMS5003;49185;42.320;23.198;2023-03-07T08:27:59;6.00;4.00;1.00
72031;PMS5003;49185;42.320;23.198;2023-03-07T08:30:26;5.67;5.00;1.00
72031;PMS5003;49185;42.320;23.198;2023-03-07T08:32:53;2.00;2.00;0.00
72031;PMS5003;49185;42.320;23.198;2023-03-07T08:35:20;2.00;1.00;0.00
72031;PMS5003;49185;42.320;23.198;2023-03-07T08:37:46;1.00;0.00;0.00
72031;PMS5003;49185;42.320;23.198;2023-03-07T08:40:12;1.50;0.50;0.00
72031;PMS5003;49185;42.320;23.198;2023-03-07T08:42:38;2.33;1.33;0.00
72031;PMS5003;49185;42.320;23.198;2023-03-07T08:45:03;1.00;1.00;0.00
72031;PMS5003;49185;42.320;23.198;2023-03-07T08:47:29;1.00;1.00;0.00
72031;PMS5003;49185;42.320;23.198;2023-03-07T08:49:54;1.00;0.00;0.00
72031;PMS5003;49185;42.320;23.198;2023-03-07T08:52:20;1.00;0.00;0.00
72031;PMS5003;49185;42.320;23.198;2023-03-07T08:54:45;1.00;1.00;0.00
72031;PMS5003;49185;42.320;23.198;2023-03-07T08:57:10;2.00;1.00;0.00
72031;PMS5003;49185;42.320;23.198;2023-03-07T08:59:36;0.00;0.00;0.00
72031;PMS5003;49185;42.320;23.198;2023-03-07T09:02:01;0.00;0.00;0.00
72031;PMS5003;49185;42.320;23.198;2023-03-07T09:04:27;0.00;0.00;0.00
72031;PMS5003;49185;42.320;23.198;2023-03-07T09:06:52;0.00;0.00;0.00
72031;PMS5003;49185;42.320;23.198;2023-03-07T09:09:18;0.00;0.00;0.00
72031;PMS5003;49185;42.320;23.198;2023-03-07T09:11:43;1.00;0.00;0.00
72031;PMS5003;49185;42.320;23.198;2023-03-07T09:14:09;0.00;0.00;0.00
72031;PMS5003;49185;42.320;23.198;2023-03-07T09:16:34;0.00;0.00;0.00
72031;PMS5003;49185;42.320;23.198;2023-03-07T09:18:59;0.00;0.00;0.00
72031;PMS5003;49185;42.320;23.198;2023-03-07T09:21:25;0.00;0.00;0.00
72031;PMS5003;49185;42.320;23.198;2023-03-07T09:23:50;0.00;0.00;0.00
72031;PMS5003;49185;42.320;23.198;2023-03-07T09:26:16;1.00;1.00;0.00
72031;PMS5003;49185;42.320;23.198;2023-03-07T09:28:41;1.00;0.00;0.00
72031;PMS5003;49185;42.320;23.198;2023-03-07T09:31:07;0.33;0.33;0.00
72031;PMS5003;49185;42.320;23.198;2023-03-07T09:33:34;0.00;0.00;0.00
72031;PMS5003;49185;42.320;23.198;2023-03-07T09:36:09;0.00;0.00;0.00
72031;PMS5003;49185;42.320;23.198;2023-03-07T09:38:37;0.00;0.00;0.00
72031;PMS5003;49185;42.320;23.198;2023-03-07T09:41:08;0.00;0.00;0.00
72031;PMS5003;49185;42.320;23.198;2023-03-07T09:44:02;0.00;0.00;0.00
72031;PMS5003;49185;42.320;23.198;2023-03-07T09:51:56;1.50;1.50;0.00
72031;PMS5003;49185;42.320;23.198;2023-03-07T09:54:25;1.00;0.00;0.00
72031;PMS5003;49185;42.320;23.198;2023-03-07T09:56:57;0.00;0.00;0.00
72031;PMS5003;49185;42.320;23.198;2023-03-07T10:07:32;0.00;0.00;0.00
72031;PMS5003;49185;42.320;23.198;2023-03-07T10:10:00;0.00;0.00;0.00
72031;PMS5003;49185;42.320;23.198;2023-03-07T10:18:18;0.00;0.00;0.00
72031;PMS5003;49185;42.320;23.198;2023-03-07T10:26:09;0.00;0.00;0.00
72031;PMS5003;49185;42.320;23.198;2023-03-07T10:28:39;0.00;0.00;0.00
72031;PMS5003;49185;42.320;23.198;2023-03-07T10:31:24;0.00;0.00;0.00
72031;PMS5003;49185;42.320;23.198;2023-03-07T10:34:15;0.00;0.00;0.00
72031;PMS5003;49185;42.320;23.198;2023-03-07T10:36:45;0.50;0.00;0.00
72031;PMS5003;49185;42.320;23.198;2023-03-07T10:41:51;0.00;0.00;0.00
72031;PMS5003;49185;42.320;23.198;2023-03-07T10:44:18;0.50;0.25;0.00
72031;PMS5003;49185;42.320;23.198;2023-03-07T10:46:45;0.00;0.00;0.00
72031;PMS5003;49185;42.320;23.198;2023-03-07T10:49:17;0.00;0.00;0.00
72031;PMS5003;49185;42.320;23.198;2023-03-07T10:54:32;0.00;0.00;0.00
72031;PMS5003;49185;42.320;23.198;2023-03-07T10:59:36;0.00;0.00;0.00
72031;PMS5003;49185;42.320;23.198;2023-03-07T11:02:20;0.00;0.00;0.00
72031;PMS5003;49185;42.320;23.198;2023-03-07T11:05:01;0.00;0.00;0.00
72031;PMS5003;49185;42.320;23.198;2023-03-07T11:07:42;0.00;0.00;0.00
72031;PMS5003;49185;42.320;23.198;2023-03-07T11:10:52;0.00;0.00;0.00
72031;PMS5003;49185;42.320;23.198;2023-03-07T11:12:55;1.00;1.00;0.00
72031;PMS5003;49185;42.320;23.198;2023-03-07T11:15:21;0.00;0.00;0.00
72031;PMS5003;49185;42.320;23.198;2023-03-07T11:17:47;0.00;0.00;0.00
72031;PMS5003;49185;42.320;23.198;2023-03-07T11:23:21;1.00;1.00;0.00
72031;PMS5003;49185;42.320;23.198;2023-03-07T11:25:51;0.00;0.00;0.00
72031;PMS5003;49185;42.320;23.198;2023-03-07T11:30:56;1.00;0.00;0.00
72031;PMS5003;49185;42.320;23.198;2023-03-07T11:36:35;0.00;0.00;0.00
72031;PMS5003;49185;42.320;23.198;2023-03-07T11:41:54;0.00;0.00;0.00
72031;PMS5003;49185;42.320;23.198;2023-03-07T11:44:33;0.75;0.00;0.00
72031;PMS5003;49185;42.320;23.198;2023-03-07T11:50:03;0.00;0.00;0.00
72031;PMS5003;49185;42.320;23.198;2023-03-07T11:55:29;0.00;0.00;0.00
72031;PMS5003;49185;42.320;23.198;2023-03-07T12:03:29;0.00;0.00;0.00
72031;PMS5003;49185;42.320;23.198;2023-03-07T12:11:50;0.00;0.00;0.00
72031;PMS5003;49185;42.320;23.198;2023-03-07T12:27:59;0.00;0.00;0.00
72031;PMS5003;49185;42.320;23.198;2023-03-07T12:38:57;0.67;0.00;0.00
72031;PMS5003;49185;42.320;23.198;2023-03-07T12:42:10;0.50;0.00;0.00
72031;PMS5003;49185;42.320;23.198;2023-03-07T12:52:51;0.00;0.00;0.00
72031;PMS5003;49185;42.320;23.198;2023-03-07T13:00:55;0.00;0.00;0.00
72031;PMS5003;49185;42.320;23.198;2023-03-07T13:06:16;0.25;0.00;0.00
72031;PMS5003;49185;42.320;23.198;2023-03-07T13:08:44;0.00;0.00;0.00
72031;PMS5003;49185;42.320;23.198;2023-03-07T13:11:26;0.00;0.00;0.00
72031;PMS5003;49185;42.320;23.198;2023-03-07T13:13:54;0.50;0.00;0.00
72031;PMS5003;49185;42.320;23.198;2023-03-07T13:24:39;0.00;0.00;0.00
72031;PMS5003;49185;42.320;23.198;2023-03-07T13:27:13;0.50;0.00;0.00
72031;PMS5003;49185;42.320;23.198;2023-03-07T13:37:52;0.00;0.00;0.00
72031;PMS5003;49185;42.320;23.198;2023-03-07T13:42:53;0.00;0.00;0.00
72031;PMS5003;49185;42.320;23.198;2023-03-07T13:48:03;0.00;0.00;0.00
72031;PMS5003;49185;42.320;23.198;2023-03-07T13:55:57;0.00;0.00;0.00
72031;PMS5003;49185;42.320;23.198;2023-03-07T13:58:27;0.00;0.00;0.00
72031;PMS5003;49185;42.320;23.198;2023-03-07T14:00:58;0.00;0.00;0.00
72031;PMS5003;49185;42.320;23.198;2023-03-07T14:03:27;0.00;0.00;0.00
72031;PMS5003;49185;42.320;23.198;2023-03-07T14:06:02;0.00;0.00;0.00
72031;PMS5003;49185;42.320;23.198;2023-03-07T14:08:35;0.00;0.00;0.00
72031;PMS5003;49185;42.320;23.198;2023-03-07T14:11:01;0.75;0.00;0.00
72031;PMS5003;49185;42.320;23.198;2023-03-07T14:15:59;0.00;0.00;0.00
72031;PMS5003;49185;42.320;23.198;2023-03-07T14:19:00;1.00;0.00;0.00
72031;PMS5003;49185;42.320;23.198;2023-03-07T14:26:56;1.00;1.00;0.00
72031;PMS5003;49185;42.320;23.198;2023-03-07T14:29:26;1.00;1.00;0.00
72031;PMS5003;49185;42.320;23.198;2023-03-07T14:31:53;0.00;0.00;0.00
72031;PMS5003;49185;42.320;23.198;2023-03-07T14:36:50;1.00;1.00;0.00
72031;PMS5003;49185;42.320;23.198;2023-03-07T14:39:18;0.00;0.00;0.00
72031;PMS5003;49185;42.320;23.198;2023-03-07T14:47:13;1.00;1.00;0.00
72031;PMS5003;49185;42.320;23.198;2023-03-07T14:50:08;1.00;1.00;0.00
72031;PMS5003;49185;42.320;23.198;2023-03-07T14:52:39;2.00;2.00;0.00
72031;PMS5003;49185;42.320;23.198;2023-03-07T14:55:06;5.75;4.00;0.00
72031;PMS5003;49185;42.320;23.198;2023-03-07T14:57:42;3.00;2.00;0.00
72031;PMS5003;49185;42.320;23.198;2023-03-07T15:02:54;1.00;1.00;0.00
72031;PMS5003;49185;42.320;23.198;2023-03-07T15:05:26;0.00;0.00;0.00
72031;PMS5003;49185;42.320;23.198;2023-03-07T15:07:54;1.50;0.00;0.00
72031;PMS5003;49185;42.320;23.198;2023-03-07T15:12:56;0.00;0.00;0.00
72031;PMS5003;49185;42.320;23.198;2023-03-07T15:17:58;1.00;1.00;0.00
72031;PMS5003;49185;42.320;23.198;2023-03-07T15:20:47;1.00;0.00;0.00
72031;PMS5003;49185;42.320;23.198;2023-03-07T15:23:21;1.00;1.00;0.00
72031;PMS5003;49185;42.320;23.198;2023-03-07T15:26:12;2.00;1.00;0.00
72031;PMS5003;49185;42.320;23.198;2023-03-07T15:28:39;1.00;1.00;0.00
72031;PMS5003;49185;42.320;23.198;2023-03-07T15:31:07;0.00;0.00;0.00
72031;PMS5003;49185;42.320;23.198;2023-03-07T15:33:33;1.00;1.00;0.00
72031;PMS5003;49185;42.320;23.198;2023-03-07T15:38:41;1.50;1.00;0.00
72031;PMS5003;49185;42.320;23.198;2023-03-07T15:41:23;2.00;1.00;0.00
72031;PMS5003;49185;42.320;23.198;2023-03-07T15:44:05;0.00;0.00;0.00
72031;PMS5003;49185;42.320;23.198;2023-03-07T15:46:41;0.00;0.00;0.00
72031;PMS5003;49185;42.320;23.198;2023-03-07T15:49:52;0.00;0.00;0.00
72031;PMS5003;49185;42.320;23.198;2023-03-07T15:51:58;0.00;0.00;0.00
72031;PMS5003;49185;42.320;23.198;2023-03-07T15:57:02;4.25;3.00;0.00
72031;PMS5003;49185;42.320;23.198;2023-03-07T16:01:56;44.00;33.67;18.00
72031;PMS5003;49185;42.320;23.198;2023-03-07T16:06:59;57.00;44.00;26.00
72031;PMS5003;49185;42.320;23.198;2023-03-07T16:09:25;53.00;41.00;26.00
72031;PMS5003;49185;42.320;23.198;2023-03-07T16:11:50;38.00;31.67;18.00
72031;PMS5003;49185;42.320;23.198;2023-03-07T16:14:20;28.75;26.50;14.50
72031;PMS5003;49185;42.320;23.198;2023-03-07T16:16:48;35.25;29.50;16.75
72031;PMS5003;49185;42.320;23.198;2023-03-07T16:19:13;28.00;24.00;14.00
72031;PMS5003;49185;42.320;23.198;2023-03-07T16:21:39;32.00;26.33;14.00
72031;PMS5003;49185;42.320;23.198;2023-03-07T16:24:04;32.00;27.33;17.00
72031;PMS5003;49185;42.320;23.198;2023-03-07T16:26:30;22.33;20.33;13.67
72031;PMS5003;49185;42.320;23.198;2023-03-07T16:28:56;19.00;17.00;10.00
72031;PMS5003;49185;42.320;23.198;2023-03-07T16:31:24;22.00;20.00;12.00
72031;PMS5003;49185;42.320;23.198;2023-03-07T16:33:50;15.25;14.25;7.00
72031;PMS5003;49185;42.320;23.198;2023-03-07T16:36:15;10.00;8.67;3.33
72031;PMS5003;49185;42.320;23.198;2023-03-07T16:38:41;4.00;3.00;2.00
72031;PMS5003;49185;42.320;23.198;2023-03-07T16:41:13;3.75;3.75;1.00